Time;durP1;ratioP1;P1;durP2;ratioP2;P2;SDS_P1;SDS_P2;PMS_P1;PMS_P2;Temp;Humidity;BMP_temperature;BMP_pressure;BME280_temperature;BME280_humidity;BME280_pressure;Samples;Min_cycle;Max_cycle;Signal;HPM_P1;HPM_P2
2023/10/28 00:01:18;;;;;;;5.03;1.40;;;;;;;;;;5048819;28;20032;-79
2023/10/28 00:03:44;;;;;;;2.08;0.88;;;;;;;;;;5033347;28;20033;-80
2023/10/28 00:06:09;;;;;;;2.85;1.13;;;;;;;;;;5018209;28;20049;-78
2023/10/28 00:08:35;;;;;;;5.18;1.40;;;;;;;;;;5055821;28;20497;-79
2023/10/28 00:11:00;;;;;;;5.90;1.33;;;;;;;;;;5055214;28;20037;-78
2023/10/28 00:13:25;;;;;;;3.35;1.10;;;;;;;;;;5055058;28;20028;-77
2023/10/28 00:15:51;;;;;;;2.55;1.10;;;;;;;;;;5055082;28;20147;-77
2023/10/28 00:18:16;;;;;;;3.35;1.20;;;;;;;;;;5037503;28;20035;-78
2023/10/28 00:20:44;;;;;;;3.00;1.10;;;;;;;;;;5055275;28;20151;-78
2023/10/28 00:23:09;;;;;;;2.60;0.90;;;;;;;;;;5054980;28;20033;-77
2023/10/28 00:25:34;;;;;;;3.45;1.10;;;;;;;;;;5053289;28;20041;-78
2023/10/28 00:27:59;;;;;;;2.70;1.08;;;;;;;;;;5037317;28;20049;-77
2023/10/28 00:30:26;;;;;;;3.50;1.17;;;;;;;;;;5036789;28;20039;-78
2023/10/28 00:32:52;;;;;;;2.30;0.80;;;;;;;;;;5036704;28;20025;-79
2023/10/28 00:35:18;;;;;;;4.63;1.33;;;;;;;;;;5055084;28;20505;-79
2023/10/28 00:37:44;;;;;;;3.47;1.10;;;;;;;;;;5055902;28;20029;-79
2023/10/28 00:40:10;;;;;;;3.78;0.90;;;;;;;;;;5056428;28;20040;-79
2023/10/28 00:42:36;;;;;;;3.47;1.10;;;;;;;;;;5037901;28;20121;-77
2023/10/28 00:45:02;;;;;;;2.80;0.80;;;;;;;;;;5038009;28;20128;-79
2023/10/28 00:47:27;;;;;;;2.55;0.90;;;;;;;;;;5038396;28;20068;-78
2023/10/28 00:49:53;;;;;;;3.35;1.30;;;;;;;;;;5038305;28;20029;-78
2023/10/28 00:52:19;;;;;;;6.22;1.38;;;;;;;;;;5037830;28;20029;-76
2023/10/28 00:54:47;;;;;;;2.67;0.80;;;;;;;;;;5032989;28;20029;-78
2023/10/28 00:57:13;;;;;;;3.65;1.02;;;;;;;;;;5056175;28;20120;-77
2023/10/28 00:59:38;;;;;;;4.68;0.90;;;;;;;;;;5037645;28;20102;-78
2023/10/28 01:02:03;;;;;;;2.33;0.70;;;;;;;;;;5037272;28;20063;-79
2023/10/28 01:04:29;;;;;;;2.63;0.80;;;;;;;;;;5037605;28;20024;-79
2023/10/28 01:06:55;;;;;;;5.05;1.08;;;;;;;;;;5038098;28;20032;-78
2023/10/28 01:09:21;;;;;;;4.03;1.10;;;;;;;;;;5037193;28;20448;-76
2023/10/28 01:11:47;;;;;;;5.63;1.08;;;;;;;;;;5054317;28;20087;-77
2023/10/28 01:14:12;;;;;;;3.92;0.85;;;;;;;;;;5036488;28;20060;-77
2023/10/28 01:16:37;;;;;;;3.45;0.95;;;;;;;;;;5054448;28;20502;-77
2023/10/28 01:19:02;;;;;;;4.43;1.20;;;;;;;;;;5054264;28;20116;-78
2023/10/28 01:21:28;;;;;;;5.60;1.40;;;;;;;;;;5036902;28;20528;-78
2023/10/28 01:23:54;;;;;;;4.40;1.00;;;;;;;;;;5054220;28;20078;-78
2023/10/28 01:26:20;;;;;;;4.10;1.15;;;;;;;;;;5054604;28;20071;-77
2023/10/28 01:28:45;;;;;;;3.38;1.00;;;;;;;;;;5036473;28;20036;-78
2023/10/28 01:31:10;;;;;;;4.35;0.80;;;;;;;;;;5054288;28;20033;-78
2023/10/28 01:33:36;;;;;;;5.30;1.67;;;;;;;;;;5035673;28;20029;-78
2023/10/28 01:36:01;;;;;;;5.50;1.13;;;;;;;;;;5054051;28;20040;-77
2023/10/28 01:38:26;;;;;;;3.20;0.70;;;;;;;;;;5054277;28;20060;-77
2023/10/28 01:40:52;;;;;;;3.72;1.00;;;;;;;;;;5054406;28;20478;-78
2023/10/28 01:43:18;;;;;;;4.30;0.85;;;;;;;;;;5035854;28;20032;-78
2023/10/28 01:45:44;;;;;;;9.70;1.65;;;;;;;;;;5053801;28;20033;-79
2023/10/28 01:48:09;;;;;;;3.00;0.85;;;;;;;;;;5036865;28;20074;-79
2023/10/28 01:50:34;;;;;;;5.00;1.23;;;;;;;;;;5035667;28;20405;-79
2023/10/28 01:53:00;;;;;;;2.40;0.70;;;;;;;;;;5036821;28;20064;-78
2023/10/28 01:55:25;;;;;;;3.33;0.77;;;;;;;;;;5054549;28;20115;-77
2023/10/28 01:57:51;;;;;;;5.78;1.35;;;;;;;;;;5020718;28;20041;-79
2023/10/28 02:00:17;;;;;;;4.65;1.15;;;;;;;;;;5020488;28;20033;-79
2023/10/28 02:02:44;;;;;;;3.55;0.90;;;;;;;;;;5036739;28;20041;-79
2023/10/28 02:05:10;;;;;;;2.95;0.98;;;;;;;;;;5036799;28;20039;-79
2023/10/28 02:07:35;;;;;;;5.85;1.25;;;;;;;;;;5036436;28;20037;-79
2023/10/28 02:10:01;;;;;;;3.90;0.90;;;;;;;;;;5036798;28;20116;-79
2023/10/28 02:12:26;;;;;;;4.07;0.90;;;;;;;;;;5051006;28;20064;-77
2023/10/28 02:14:51;;;;;;;5.03;1.00;;;;;;;;;;5035695;28;20446;-76
2023/10/28 02:17:17;;;;;;;3.88;0.90;;;;;;;;;;5036577;28;20124;-79
2023/10/28 02:19:42;;;;;;;3.75;1.20;;;;;;;;;;5036360;28;20025;-79
2023/10/28 02:22:10;;;;;;;3.55;1.20;;;;;;;;;;5019849;28;20032;-78
2023/10/28 02:24:35;;;;;;;6.18;0.90;;;;;;;;;;5053610;28;20044;-77
2023/10/28 02:27:01;;;;;;;4.07;0.95;;;;;;;;;;5035671;28;20052;-79
2023/10/28 02:29:26;;;;;;;3.88;0.95;;;;;;;;;;5035031;28;20040;-79
2023/10/28 02:31:51;;;;;;;3.65;1.20;;;;;;;;;;5054058;28;20032;-79
2023/10/28 02:34:17;;;;;;;4.22;1.10;;;;;;;;;;5036071;28;20103;-78
2023/10/28 02:36:42;;;;;;;4.50;1.40;;;;;;;;;;5037052;28;20040;-79
2023/10/28 02:39:09;;;;;;;3.58;1.33;;;;;;;;;;5054730;28;20029;-79
2023/10/28 02:41:35;;;;;;;5.05;1.90;;;;;;;;;;5036895;28;20029;-79
2023/10/28 02:44:02;;;;;;;7.93;1.42;;;;;;;;;;5054786;28;20448;-79
2023/10/28 02:46:27;;;;;;;4.18;1.75;;;;;;;;;;5054640;28;20029;-80
2023/10/28 02:48:53;;;;;;;8.05;1.30;;;;;;;;;;5053931;28;20189;-79
2023/10/28 02:51:19;;;;;;;4.88;1.42;;;;;;;;;;5053268;28;20162;-78
2023/10/28 02:53:44;;;;;;;8.50;1.52;;;;;;;;;;5034778;28;20036;-78
2023/10/28 02:56:09;;;;;;;5.30;1.10;;;;;;;;;;5052134;28;20048;-78
2023/10/28 02:58:34;;;;;;;3.63;1.00;;;;;;;;;;5035510;28;20035;-79
2023/10/28 03:01:06;;;;;;;5.28;1.20;;;;;;;;;;5054737;28;20052;-79
2023/10/28 03:03:32;;;;;;;4.40;1.27;;;;;;;;;;5033794;28;20032;-80
2023/10/28 03:05:57;;;;;;;3.47;0.93;;;;;;;;;;5036049;28;20033;-79
2023/10/28 03:08:22;;;;;;;2.92;1.00;;;;;;;;;;5051372;28;20033;-78
2023/10/28 03:10:47;;;;;;;4.00;0.82;;;;;;;;;;5054102;28;20028;-79
2023/10/28 03:13:12;;;;;;;2.25;0.70;;;;;;;;;;5050752;28;20063;-79
2023/10/28 03:15:38;;;;;;;4.60;1.17;;;;;;;;;;5049133;28;20053;-79
2023/10/28 03:18:03;;;;;;;6.10;0.90;;;;;;;;;;5034427;28;20120;-78
2023/10/28 03:20:28;;;;;;;3.92;0.90;;;;;;;;;;5034936;28;20032;-78
2023/10/28 03:22:54;;;;;;;2.80;0.85;;;;;;;;;;5034450;28;20028;-78
2023/10/28 03:25:19;;;;;;;4.20;1.10;;;;;;;;;;5052710;28;20033;-78
2023/10/28 03:27:45;;;;;;;4.47;1.20;;;;;;;;;;5053491;28;20036;-77
2023/10/28 03:30:11;;;;;;;3.17;0.80;;;;;;;;;;5047314;28;20486;-78
2023/10/28 03:32:36;;;;;;;5.70;1.33;;;;;;;;;;5053333;28;20028;-78
2023/10/28 03:35:02;;;;;;;4.45;1.52;;;;;;;;;;5052881;28;20029;-78
2023/10/28 03:37:27;;;;;;;4.72;0.90;;;;;;;;;;5053037;28;20029;-79
2023/10/28 03:39:52;;;;;;;4.07;1.02;;;;;;;;;;5053364;28;20031;-78
2023/10/28 03:42:18;;;;;;;4.55;1.10;;;;;;;;;;5052710;28;20025;-78
2023/10/28 03:44:43;;;;;;;2.88;1.00;;;;;;;;;;5052484;28;20021;-78
2023/10/28 03:47:08;;;;;;;3.67;0.98;;;;;;;;;;5032629;28;20040;-77
2023/10/28 03:49:33;;;;;;;4.43;1.27;;;;;;;;;;5051564;28;20052;-78
2023/10/28 03:51:59;;;;;;;3.30;1.05;;;;;;;;;;5052922;28;20086;-76
2023/10/28 03:54:24;;;;;;;1.95;0.75;;;;;;;;;;5049189;28;20041;-78
2023/10/28 03:56:49;;;;;;;4.82;1.00;;;;;;;;;;5052519;28;20020;-78
2023/10/28 03:59:15;;;;;;;4.45;1.45;;;;;;;;;;5034717;28;20036;-76
2023/10/28 04:01:41;;;;;;;4.80;1.02;;;;;;;;;;5052188;28;20028;-77
2023/10/28 04:04:06;;;;;;;5.15;1.33;;;;;;;;;;5052750;28;20575;-78
2023/10/28 04:06:31;;;;;;;6.13;1.48;;;;;;;;;;5049333;28;20493;-78
2023/10/28 04:08:57;;;;;;;2.60;0.90;;;;;;;;;;5048945;28;20386;-78
2023/10/28 04:11:23;;;;;;;7.20;1.30;;;;;;;;;;5032108;28;20432;-76
2023/10/28 04:13:49;;;;;;;3.88;1.00;;;;;;;;;;5052873;28;20035;-80
2023/10/28 04:16:14;;;;;;;3.53;1.10;;;;;;;;;;5034883;28;20120;-79
2023/10/28 04:18:40;;;;;;;7.05;1.17;;;;;;;;;;5053056;28;20060;-79
2023/10/28 04:21:05;;;;;;;5.45;1.40;;;;;;;;;;5052288;28;20025;-79
2023/10/28 04:23:30;;;;;;;3.28;1.25;;;;;;;;;;5051558;28;20025;-78
2023/10/28 04:25:56;;;;;;;3.78;1.02;;;;;;;;;;5050553;28;20504;-78
2023/10/28 04:28:21;;;;;;;4.57;0.90;;;;;;;;;;5051877;28;20500;-77
2023/10/28 04:30:56;;;;;;;4.47;1.20;;;;;;;;;;5051668;28;20125;-78
2023/10/28 04:33:22;;;;;;;5.57;1.00;;;;;;;;;;5051244;28;20029;-79
2023/10/28 04:35:47;;;;;;;5.85;1.38;;;;;;;;;;5051243;28;20090;-77
2023/10/28 04:38:12;;;;;;;3.50;1.02;;;;;;;;;;5051907;28;20035;-78
2023/10/28 04:40:38;;;;;;;4.72;1.13;;;;;;;;;;5052081;28;20081;-78
2023/10/28 04:43:04;;;;;;;5.63;1.20;;;;;;;;;;5051481;28;20455;-79
2023/10/28 04:45:30;;;;;;;4.95;1.13;;;;;;;;;;5051198;28;20025;-77
2023/10/28 04:47:56;;;;;;;4.97;1.48;;;;;;;;;;5034045;28;20036;-78
2023/10/28 04:50:22;;;;;;;4.53;1.05;;;;;;;;;;5051793;28;20410;-78
2023/10/28 04:52:47;;;;;;;3.17;1.40;;;;;;;;;;5053982;28;20516;-78
2023/10/28 04:55:12;;;;;;;3.20;1.17;;;;;;;;;;5054180;28;20394;-81
2023/10/28 04:57:38;;;;;;;5.05;1.38;;;;;;;;;;5055196;28;20029;-78
2023/10/28 05:00:03;;;;;;;3.55;1.40;;;;;;;;;;5054599;28;20033;-78
2023/10/28 05:02:28;;;;;;;7.63;2.78;;;;;;;;;;5034929;28;20025;-78
2023/10/28 05:04:54;;;;;;;5.45;1.40;;;;;;;;;;5052470;28;20409;-78
2023/10/28 05:07:19;;;;;;;6.22;1.60;;;;;;;;;;5053014;28;20025;-78
2023/10/28 05:09:44;;;;;;;4.53;1.70;;;;;;;;;;5052444;28;20078;-77
2023/10/28 05:12:09;;;;;;;3.38;1.10;;;;;;;;;;5052614;28;20033;-78
2023/10/28 05:14:34;;;;;;;3.63;1.60;;;;;;;;;;5052370;28;20029;-78
2023/10/28 05:17:00;;;;;;;3.90;1.20;;;;;;;;;;5053660;28;20102;-77
2023/10/28 05:19:25;;;;;;;3.75;1.42;;;;;;;;;;5035730;28;20092;-78
2023/10/28 05:21:51;;;;;;;2.67;0.98;;;;;;;;;;5052112;28;20025;-78
2023/10/28 05:24:16;;;;;;;7.95;1.30;;;;;;;;;;5051672;28;20032;-78
2023/10/28 05:26:43;;;;;;;2.67;1.30;;;;;;;;;;5053847;28;20025;-79
2023/10/28 05:29:08;;;;;;;3.25;1.20;;;;;;;;;;5054552;28;20086;-78
2023/10/28 05:31:35;;;;;;;2.53;0.70;;;;;;;;;;5036187;28;20037;-77
2023/10/28 05:34:01;;;;;;;3.47;1.33;;;;;;;;;;5034943;28;20033;-78
2023/10/28 05:36:26;;;;;;;2.63;1.10;;;;;;;;;;5031998;28;20623;-78
2023/10/28 05:38:54;;;;;;;3.47;1.00;;;;;;;;;;5054056;28;20032;-78
2023/10/28 05:41:19;;;;;;;2.50;1.15;;;;;;;;;;5054241;28;20017;-78
2023/10/28 05:43:44;;;;;;;5.45;1.60;;;;;;;;;;5052360;28;20550;-78
2023/10/28 05:46:10;;;;;;;4.30;1.35;;;;;;;;;;5052925;28;20035;-78
2023/10/28 05:48:38;;;;;;;4.82;1.50;;;;;;;;;;5054012;28;20029;-78
2023/10/28 05:51:05;;;;;;;4.70;1.42;;;;;;;;;;5054086;28;20370;-78
2023/10/28 05:53:30;;;;;;;3.53;1.50;;;;;;;;;;5035879;28;20370;-78
2023/10/28 05:55:55;;;;;;;4.35;1.60;;;;;;;;;;5036085;28;20029;-78
2023/10/28 05:58:20;;;;;;;3.38;1.35;;;;;;;;;;5036019;28;20037;-78
2023/10/28 06:00:46;;;;;;;5.20;1.92;;;;;;;;;;5036070;28;20470;-78
2023/10/28 06:03:12;;;;;;;4.15;1.85;;;;;;;;;;5053150;28;20057;-78
2023/10/28 06:05:37;;;;;;;5.00;1.60;;;;;;;;;;5050672;28;20029;-78
2023/10/28 06:08:03;;;;;;;5.80;1.63;;;;;;;;;;5032864;28;20531;-78
2023/10/28 06:10:28;;;;;;;2.78;1.52;;;;;;;;;;5053505;28;20060;-77
2023/10/28 06:12:53;;;;;;;4.10;1.45;;;;;;;;;;5034162;28;20060;-79
2023/10/28 06:15:18;;;;;;;5.18;1.42;;;;;;;;;;5053142;28;20071;-77
2023/10/28 06:17:45;;;;;;;4.30;1.55;;;;;;;;;;5052098;28;20037;-78
2023/10/28 06:20:10;;;;;;;5.07;1.63;;;;;;;;;;5035352;28;20025;-78
2023/10/28 06:22:36;;;;;;;3.97;1.75;;;;;;;;;;5053739;28;20535;-77
2023/10/28 06:25:02;;;;;;;3.95;1.60;;;;;;;;;;5039126;28;20116;-79
2023/10/28 06:27:27;;;;;;;3.25;1.98;;;;;;;;;;5053120;28;20515;-79
2023/10/28 06:29:53;;;;;;;4.75;1.90;;;;;;;;;;5050857;28;20052;-78
2023/10/28 06:32:18;;;;;;;6.93;2.50;;;;;;;;;;5052508;28;20505;-78
2023/10/28 06:34:43;;;;;;;7.63;3.45;;;;;;;;;;5017171;28;20033;-77
2023/10/28 06:37:08;;;;;;;4.93;2.30;;;;;;;;;;5051993;28;20025;-79
2023/10/28 06:39:34;;;;;;;4.72;2.10;;;;;;;;;;5052695;28;20064;-78
2023/10/28 06:42:01;;;;;;;5.63;2.38;;;;;;;;;;5052884;28;20029;-79
2023/10/28 06:44:26;;;;;;;5.20;2.42;;;;;;;;;;5052219;28;20493;-79
2023/10/28 06:46:51;;;;;;;7.00;2.33;;;;;;;;;;5034960;28;20032;-78
2023/10/28 06:49:16;;;;;;;5.53;2.63;;;;;;;;;;5020854;28;20033;-79
2023/10/28 06:51:43;;;;;;;6.32;2.40;;;;;;;;;;5053022;28;20053;-78
2023/10/28 06:54:08;;;;;;;5.43;1.95;;;;;;;;;;5052154;28;20167;-79
2023/10/28 06:56:34;;;;;;;5.90;2.08;;;;;;;;;;5034818;28;20120;-79
2023/10/28 06:59:00;;;;;;;5.50;1.73;;;;;;;;;;5053344;28;20064;-79
2023/10/28 07:01:26;;;;;;;4.97;1.77;;;;;;;;;;5050635;28;20393;-79
2023/10/28 07:03:51;;;;;;;3.40;1.50;;;;;;;;;;5029323;28;20021;-79
2023/10/28 07:06:17;;;;;;;3.40;1.33;;;;;;;;;;5052657;28;20032;-79
2023/10/28 07:08:43;;;;;;;5.80;1.38;;;;;;;;;;5052708;28;20041;-79
2023/10/28 07:11:11;;;;;;;6.13;1.65;;;;;;;;;;5052935;28;20029;-79
2023/10/28 07:13:36;;;;;;;3.33;1.40;;;;;;;;;;5033935;28;20036;-78
2023/10/28 07:16:02;;;;;;;4.90;1.45;;;;;;;;;;5030618;28;20025;-78
2023/10/28 07:18:27;;;;;;;4.60;1.42;;;;;;;;;;5051976;28;20489;-79
2023/10/28 07:20:52;;;;;;;3.83;1.38;;;;;;;;;;5052788;28;20025;-79
2023/10/28 07:23:20;;;;;;;3.38;1.30;;;;;;;;;;5053009;28;20033;-79
2023/10/28 07:25:45;;;;;;;4.00;1.23;;;;;;;;;;5013943;28;20057;-79
2023/10/28 07:28:13;;;;;;;2.78;1.08;;;;;;;;;;5050012;28;20071;-79
2023/10/28 07:30:43;;;;;;;7.20;1.70;;;;;;;;;;5029766;28;20033;-79
2023/10/28 07:33:08;;;;;;;4.55;1.48;;;;;;;;;;5034850;28;20483;-79
2023/10/28 07:35:33;;;;;;;4.40;1.40;;;;;;;;;;5034350;28;20090;-79
2023/10/28 07:38:00;;;;;;;4.18;1.50;;;;;;;;;;5034047;28;20036;-80
2023/10/28 07:40:26;;;;;;;4.28;1.27;;;;;;;;;;5052034;28;20112;-78
2023/10/28 07:42:51;;;;;;;5.32;1.60;;;;;;;;;;5051310;28;20075;-80
2023/10/28 07:45:16;;;;;;;4.20;1.27;;;;;;;;;;5051127;28;20033;-79
2023/10/28 07:47:41;;;;;;;4.40;1.40;;;;;;;;;;5033521;28;20028;-77
2023/10/28 07:50:07;;;;;;;3.92;1.20;;;;;;;;;;5051820;28;20032;-79
2023/10/28 07:52:32;;;;;;;3.38;1.10;;;;;;;;;;5051762;28;20112;-79
2023/10/28 07:54:57;;;;;;;5.22;1.50;;;;;;;;;;5051517;28;20190;-78
2023/10/28 07:57:23;;;;;;;5.13;1.40;;;;;;;;;;5052160;28;20540;-79
2023/10/28 07:59:48;;;;;;;2.95;1.08;;;;;;;;;;5034080;28;20489;-79
2023/10/28 08:02:13;;;;;;;3.28;1.20;;;;;;;;;;5051496;28;20029;-79
2023/10/28 08:04:38;;;;;;;3.88;1.33;;;;;;;;;;5050998;28;20025;-79
2023/10/28 08:07:04;;;;;;;3.53;1.10;;;;;;;;;;5034197;28;20155;-79
2023/10/28 08:09:29;;;;;;;2.47;0.88;;;;;;;;;;5017784;28;20736;-79
2023/10/28 08:11:54;;;;;;;2.53;0.77;;;;;;;;;;5033851;28;20408;-78
2023/10/28 08:14:19;;;;;;;3.30;1.00;;;;;;;;;;5051430;28;20512;-79
2023/10/28 08:16:45;;;;;;;4.65;1.15;;;;;;;;;;5033838;28;20040;-79
2023/10/28 08:19:12;;;;;;;5.93;1.15;;;;;;;;;;5051706;28;20159;-77
2023/10/28 08:21:37;;;;;;;3.15;1.08;;;;;;;;;;5051651;28;20025;-79
2023/10/28 08:24:02;;;;;;;3.70;1.40;;;;;;;;;;5050511;28;20393;-78
2023/10/28 08:26:28;;;;;;;4.05;1.35;;;;;;;;;;5051710;28;20508;-78
2023/10/28 08:28:53;;;;;;;4.13;1.20;;;;;;;;;;5055658;28;20539;-79
2023/10/28 08:31:19;;;;;;;2.10;0.95;;;;;;;;;;5055503;28;20033;-79
2023/10/28 08:33:44;;;;;;;4.65;1.20;;;;;;;;;;5055027;28;20029;-79
2023/10/28 08:36:10;;;;;;;3.15;1.17;;;;;;;;;;5054764;28;20031;-79
2023/10/28 08:38:35;;;;;;;3.30;1.13;;;;;;;;;;5054780;28;20060;-78
2023/10/28 08:41:02;;;;;;;4.38;1.02;;;;;;;;;;5055145;28;20035;-78
2023/10/28 08:43:27;;;;;;;3.20;1.00;;;;;;;;;;5055483;28;20036;-78
2023/10/28 08:45:53;;;;;;;4.35;1.13;;;;;;;;;;5054677;28;20456;-78
2023/10/28 08:48:20;;;;;;;3.63;0.82;;;;;;;;;;5055299;28;20036;-79
2023/10/28 08:50:49;;;;;;;2.53;0.80;;;;;;;;;;5053521;28;20036;-80
2023/10/28 08:53:15;;;;;;;2.80;0.70;;;;;;;;;;5056552;28;20052;-80
2023/10/28 08:55:41;;;;;;;2.78;0.93;;;;;;;;;;5054765;28;20033;-80
2023/10/28 08:58:06;;;;;;;1.23;0.60;;;;;;;;;;5054578;28;20064;-79
2023/10/28 09:00:34;;;;;;;1.83;0.60;;;;;;;;;;5054174;28;20063;-79
2023/10/28 09:02:59;;;;;;;2.45;0.90;;;;;;;;;;5055285;28;20033;-80
2023/10/28 09:05:26;;;;;;;3.08;0.98;;;;;;;;;;5052865;28;20029;-77
2023/10/28 09:07:51;;;;;;;1.83;0.77;;;;;;;;;;5053965;28;21196;-79
2023/10/28 09:10:16;;;;;;;2.85;0.85;;;;;;;;;;5053597;28;20025;-79
2023/10/28 09:12:43;;;;;;;3.20;0.73;;;;;;;;;;5054631;28;20029;-78
2023/10/28 09:15:11;;;;;;;1.80;0.65;;;;;;;;;;5054975;28;20029;-78
2023/10/28 09:17:36;;;;;;;4.00;1.17;;;;;;;;;;5036940;28;20560;-79
2023/10/28 09:20:09;;;;;;;4.32;0.90;;;;;;;;;;5036991;28;20121;-79
2023/10/28 09:22:35;;;;;;;2.17;0.90;;;;;;;;;;5054179;28;20036;-80
2023/10/28 09:25:03;;;;;;;2.40;0.70;;;;;;;;;;5036873;28;20036;-79
2023/10/28 09:27:28;;;;;;;1.45;0.45;;;;;;;;;;5053962;28;20124;-79
2023/10/28 09:30:02;;;;;;;2.20;0.55;;;;;;;;;;5055052;28;20041;-79
2023/10/28 09:32:28;;;;;;;2.10;0.40;;;;;;;;;;5054067;28;20540;-80
2023/10/28 09:34:53;;;;;;;1.70;0.50;;;;;;;;;;5052081;28;20489;-80
2023/10/28 09:37:18;;;;;;;1.48;0.70;;;;;;;;;;5053283;28;20134;-79
2023/10/28 09:39:47;;;;;;;2.35;0.50;;;;;;;;;;5051684;28;20025;-79
2023/10/28 09:42:14;;;;;;;1.80;0.47;;;;;;;;;;5052649;28;20055;-79
2023/10/28 09:44:40;;;;;;;2.30;0.40;;;;;;;;;;5052991;28;20132;-79
2023/10/28 09:47:05;;;;;;;1.85;0.65;;;;;;;;;;5053992;28;20060;-79
2023/10/28 09:49:31;;;;;;;4.03;0.68;;;;;;;;;;5054326;28;20048;-79
2023/10/28 09:51:58;;;;;;;1.52;0.57;;;;;;;;;;5019915;28;20481;-80
2023/10/28 09:54:25;;;;;;;0.80;0.25;;;;;;;;;;5036009;28;20063;-79
2023/10/28 09:56:52;;;;;;;1.77;0.35;;;;;;;;;;5034619;28;20029;-80
2023/10/28 09:59:20;;;;;;;1.63;0.40;;;;;;;;;;5052251;28;20032;-80
2023/10/28 10:01:48;;;;;;;2.22;0.28;;;;;;;;;;5052301;28;20048;-80
2023/10/28 10:04:26;;;;;;;1.58;0.73;;;;;;;;;;5035364;28;20490;-80
2023/10/28 10:06:51;;;;;;;1.35;0.55;;;;;;;;;;5016967;28;20037;-79
2023/10/28 10:09:18;;;;;;;2.03;0.50;;;;;;;;;;5034760;28;20039;-80
2023/10/28 10:11:43;;;;;;;1.25;0.35;;;;;;;;;;5034810;28;20043;-80
2023/10/28 10:14:12;;;;;;;2.42;0.43;;;;;;;;;;5041813;28;20025;-80
2023/10/28 10:16:56;;;;;;;2.22;0.60;;;;;;;;;;5053454;28;20025;-80
2023/10/28 10:19:26;;;;;;;4.00;1.23;;;;;;;;;;5035229;28;20032;-79
2023/10/28 10:21:52;;;;;;;6.95;0.65;;;;;;;;;;5031774;28;20029;-79
2023/10/28 10:24:20;;;;;;;5.10;0.77;;;;;;;;;;5053877;28;20037;-80
2023/10/28 10:26:53;;;;;;;1.10;0.50;;;;;;;;;;5035993;28;20024;-79
2023/10/28 10:29:18;;;;;;;2.53;0.70;;;;;;;;;;5030933;28;20063;-80
2023/10/28 10:31:48;;;;;;;2.05;0.77;;;;;;;;;;5018850;28;20037;-80
2023/10/28 10:34:29;;;;;;;1.13;0.60;;;;;;;;;;5053564;28;20102;-78
2023/10/28 10:36:54;;;;;;;1.75;0.28;;;;;;;;;;5027811;28;20037;-80
2023/10/28 10:39:20;;;;;;;2.03;0.75;;;;;;;;;;5053510;28;20093;-78
2023/10/28 10:41:48;;;;;;;1.10;0.30;;;;;;;;;;5052629;28;20033;-80
2023/10/28 10:44:24;;;;;;;1.50;0.30;;;;;;;;;;5049551;28;20021;-80
2023/10/28 10:46:49;;;;;;;0.50;0.20;;;;;;;;;;5053333;28;20480;-80
2023/10/28 10:49:15;;;;;;;0.50;0.20;;;;;;;;;;5053460;28;20033;-80
2023/10/28 10:51:40;;;;;;;0.90;0.30;;;;;;;;;;5052659;28;20115;-80
2023/10/28 10:54:06;;;;;;;1.00;0.40;;;;;;;;;;5019045;28;20508;-80
2023/10/28 10:56:31;;;;;;;0.40;0.30;;;;;;;;;;5051564;28;20032;-79
2023/10/28 10:58:57;;;;;;;0.28;0.20;;;;;;;;;;5053015;28;20031;-80
2023/10/28 11:01:22;;;;;;;1.92;0.50;;;;;;;;;;5018117;28;20021;-79
2023/10/28 11:03:48;;;;;;;1.13;0.40;;;;;;;;;;5052807;28;20527;-80
2023/10/28 11:06:13;;;;;;;1.20;0.47;;;;;;;;;;5035196;28;20033;-80
2023/10/28 11:08:39;;;;;;;0.88;0.40;;;;;;;;;;5035187;28;20047;-79
2023/10/28 11:11:04;;;;;;;1.15;0.40;;;;;;;;;;5052964;28;20056;-79
2023/10/28 11:13:30;;;;;;;1.08;0.30;;;;;;;;;;5052605;28;20417;-80
2023/10/28 11:15:55;;;;;;;1.05;0.20;;;;;;;;;;5052209;28;20032;-80
2023/10/28 11:18:20;;;;;;;1.38;0.30;;;;;;;;;;5052236;28;20021;-79
2023/10/28 11:20:47;;;;;;;0.73;0.38;;;;;;;;;;5033993;28;20029;-81
2023/10/28 11:23:12;;;;;;;1.42;0.30;;;;;;;;;;5051114;28;20029;-79
2023/10/28 11:25:37;;;;;;;0.40;0.20;;;;;;;;;;5049892;28;20366;-79
2023/10/28 11:28:06;;;;;;;2.22;0.50;;;;;;;;;;5034436;28;20037;-78
2023/10/28 11:30:33;;;;;;;1.55;0.30;;;;;;;;;;5048917;28;20044;-78
2023/10/28 11:33:00;;;;;;;0.75;0.32;;;;;;;;;;5052026;28;20039;-79
2023/10/28 11:35:28;;;;;;;0.68;0.20;;;;;;;;;;5052238;28;20408;-79
2023/10/28 11:37:53;;;;;;;0.60;0.30;;;;;;;;;;5034569;28;20036;-79
2023/10/28 11:40:20;;;;;;;0.60;0.30;;;;;;;;;;5052190;28;20401;-79
2023/10/28 11:42:46;;;;;;;1.02;0.40;;;;;;;;;;5051583;28;20029;-79
2023/10/28 11:45:11;;;;;;;0.73;0.30;;;;;;;;;;5051546;28;20028;-79
2023/10/28 11:47:36;;;;;;;1.52;0.40;;;;;;;;;;5027490;28;20029;-79
2023/10/28 11:50:02;;;;;;;4.57;0.50;;;;;;;;;;5052365;28;20051;-79
2023/10/28 11:52:27;;;;;;;2.40;0.50;;;;;;;;;;5051013;28;20033;-79
2023/10/28 11:54:53;;;;;;;1.30;0.47;;;;;;;;;;5033008;28;20039;-79
2023/10/28 11:57:18;;;;;;;1.73;0.50;;;;;;;;;;5051796;28;20020;-79
2023/10/28 11:59:44;;;;;;;1.65;0.57;;;;;;;;;;5032826;28;20557;-78
2023/10/28 12:02:09;;;;;;;1.42;0.50;;;;;;;;;;5031982;28;20037;-79
2023/10/28 12:04:34;;;;;;;1.45;0.50;;;;;;;;;;5033661;28;20028;-79
2023/10/28 12:06:59;;;;;;;2.03;0.55;;;;;;;;;;5032316;28;20088;-78
2023/10/28 12:09:26;;;;;;;1.33;0.60;;;;;;;;;;5051951;28;20033;-79
2023/10/28 12:11:52;;;;;;;2.55;0.75;;;;;;;;;;5051703;28;20033;-79
2023/10/28 12:14:17;;;;;;;2.75;0.75;;;;;;;;;;5033699;28;20087;-79
2023/10/28 12:16:42;;;;;;;4.82;1.70;;;;;;;;;;5051602;28;20033;-79
2023/10/28 12:19:08;;;;;;;3.65;0.73;;;;;;;;;;5052105;28;20032;-79
2023/10/28 12:21:33;;;;;;;2.80;0.52;;;;;;;;;;5051594;28;20100;-79
2023/10/28 12:23:58;;;;;;;2.33;0.70;;;;;;;;;;5030730;28;20029;-79
2023/10/28 12:26:24;;;;;;;0.75;0.22;;;;;;;;;;5051761;28;20037;-79
2023/10/28 12:28:49;;;;;;;7.03;0.73;;;;;;;;;;5033732;28;20044;-78
2023/10/28 12:31:16;;;;;;;2.25;0.75;;;;;;;;;;5033843;28;20449;-79
2023/10/28 12:33:41;;;;;;;2.70;0.50;;;;;;;;;;5049614;28;20040;-79
2023/10/28 12:36:08;;;;;;;1.83;0.43;;;;;;;;;;5051901;28;20481;-79
2023/10/28 12:38:34;;;;;;;3.20;0.50;;;;;;;;;;5050220;28;20029;-79
2023/10/28 12:40:59;;;;;;;1.67;0.45;;;;;;;;;;5026931;28;20505;-78
2023/10/28 12:43:25;;;;;;;2.17;0.60;;;;;;;;;;5051223;28;20028;-78
2023/10/28 12:45:51;;;;;;;1.23;0.43;;;;;;;;;;5057217;28;20389;-79
2023/10/28 12:48:18;;;;;;;2.00;0.57;;;;;;;;;;5035603;28;20033;-79
2023/10/28 12:50:43;;;;;;;1.05;0.40;;;;;;;;;;5038548;28;20043;-78
2023/10/28 12:53:10;;;;;;;3.40;0.50;;;;;;;;;;5049852;28;20029;-80
2023/10/28 12:55:36;;;;;;;1.40;0.40;;;;;;;;;;5048567;28;20029;-79
2023/10/28 12:58:01;;;;;;;1.80;0.47;;;;;;;;;;5050575;28;20033;-78
2023/10/28 13:00:28;;;;;;;3.80;0.60;;;;;;;;;;5051809;28;20473;-79
2023/10/28 13:02:54;;;;;;;4.13;0.85;;;;;;;;;;5047734;28;20095;-78
2023/10/28 13:05:19;;;;;;;1.50;0.40;;;;;;;;;;5032540;28;20031;-79
2023/10/28 13:07:44;;;;;;;0.95;0.38;;;;;;;;;;5046415;28;20059;-77
2023/10/28 13:10:10;;;;;;;3.83;0.60;;;;;;;;;;5049351;28;20028;-77
2023/10/28 13:12:36;;;;;;;3.92;0.82;;;;;;;;;;5047994;28;20775;-76
2023/10/28 13:15:02;;;;;;;4.35;1.00;;;;;;;;;;5050147;28;20032;-77
2023/10/28 13:17:27;;;;;;;1.75;0.50;;;;;;;;;;5036239;28;20025;-78
2023/10/28 13:19:53;;;;;;;2.58;0.80;;;;;;;;;;5053637;28;20025;-78
2023/10/28 13:22:18;;;;;;;3.85;0.80;;;;;;;;;;5052814;28;20025;-77
2023/10/28 13:24:43;;;;;;;2.92;0.70;;;;;;;;;;5051355;28;20033;-78
2023/10/28 13:27:09;;;;;;;1.30;0.52;;;;;;;;;;5053349;28;20032;-78
2023/10/28 13:29:35;;;;;;;4.32;1.60;;;;;;;;;;5032443;28;20029;-77
2023/10/28 13:32:02;;;;;;;3.83;0.98;;;;;;;;;;5052849;28;20057;-77
2023/10/28 13:34:30;;;;;;;4.45;1.40;;;;;;;;;;5036634;28;20040;-79
2023/10/28 13:36:55;;;;;;;3.25;1.08;;;;;;;;;;5055048;28;20068;-78
2023/10/28 13:39:20;;;;;;;3.08;1.50;;;;;;;;;;5053978;28;20140;-78
2023/10/28 13:41:46;;;;;;;2.90;1.20;;;;;;;;;;5052710;28;20025;-77
2023/10/28 13:44:11;;;;;;;3.92;1.10;;;;;;;;;;5054058;28;20079;-77
2023/10/28 13:46:37;;;;;;;2.25;0.90;;;;;;;;;;5052800;28;20027;-77
2023/10/28 13:49:03;;;;;;;2.30;0.80;;;;;;;;;;5053322;28;20496;-78
2023/10/28 13:51:28;;;;;;;2.03;0.80;;;;;;;;;;5048035;28;20021;-78
2023/10/28 13:53:54;;;;;;;5.68;1.05;;;;;;;;;;5052592;28;20021;-78
2023/10/28 13:56:20;;;;;;;4.22;1.10;;;;;;;;;;5051870;28;20032;-77
2023/10/28 13:58:46;;;;;;;3.78;1.05;;;;;;;;;;5037189;28;20040;-78
2023/10/28 14:01:12;;;;;;;3.35;1.25;;;;;;;;;;5051574;28;20025;-78
2023/10/28 14:03:37;;;;;;;3.42;1.10;;;;;;;;;;5055372;28;20036;-78
2023/10/28 14:06:04;;;;;;;4.90;1.20;;;;;;;;;;5034785;28;20017;-77
2023/10/28 14:08:29;;;;;;;2.55;0.98;;;;;;;;;;5052670;28;20043;-77
2023/10/28 14:10:55;;;;;;;2.53;1.10;;;;;;;;;;5034648;28;20429;-77
2023/10/28 14:13:21;;;;;;;5.10;1.13;;;;;;;;;;5051116;28;20025;-77
2023/10/28 14:15:46;;;;;;;4.55;1.15;;;;;;;;;;5033264;28;20033;-77
2023/10/28 14:18:13;;;;;;;3.35;1.38;;;;;;;;;;5052853;28;20029;-77
2023/10/28 14:20:38;;;;;;;4.25;1.30;;;;;;;;;;5053576;28;20103;-77
2023/10/28 14:23:04;;;;;;;6.30;1.70;;;;;;;;;;5053511;28;20484;-77
2023/10/28 14:25:29;;;;;;;5.18;1.38;;;;;;;;;;5049347;28;20025;-77
2023/10/28 14:27:54;;;;;;;6.93;1.92;;;;;;;;;;5051083;28;20418;-77
2023/10/28 14:30:19;;;;;;;3.28;0.95;;;;;;;;;;5053181;28;20029;-78
2023/10/28 14:32:45;;;;;;;3.08;0.80;;;;;;;;;;5034980;28;20517;-78
2023/10/28 14:35:10;;;;;;;2.70;1.00;;;;;;;;;;5052970;28;20035;-78